sensor_id;sensor_type;location;lat;lon;timestamp;P1;durP1;ratioP1;P2;durP2;ratioP2
25824;SDS011;13658;44.534;18.694;2023-10-31T00:01:07;16.48;;;7.93;;
25824;SDS011;13658;44.534;18.694;2023-10-31T00:03:33;12.48;;;7.35;;
25824;SDS011;13658;44.534;18.694;2023-10-31T00:05:59;13.15;;;6.72;;
25824;SDS011;13658;44.534;18.694;2023-10-31T00:08:24;18.92;;;10.60;;
25824;SDS011;13658;44.534;18.694;2023-10-31T00:10:50;15.85;;;8.43;;
25824;SDS011;13658;44.534;18.694;2023-10-31T00:13:16;16.15;;;8.80;;
25824;SDS011;13658;44.534;18.694;2023-10-31T00:15:42;13.20;;;7.80;;
25824;SDS011;13658;44.534;18.694;2023-10-31T00:18:08;14.02;;;7.85;;
25824;SDS011;13658;44.534;18.694;2023-10-31T00:20:34;13.35;;;6.90;;
25824;SDS011;13658;44.534;18.694;2023-10-31T00:23:00;12.23;;;6.88;;
25824;SDS011;13658;44.534;18.694;2023-10-31T00:25:26;14.30;;;8.00;;
25824;SDS011;13658;44.534;18.694;2023-10-31T00:27:52;14.82;;;8.45;;
25824;SDS011;13658;44.534;18.694;2023-10-31T00:30:17;13.18;;;7.55;;
25824;SDS011;13658;44.534;18.694;2023-10-31T00:32:43;7.95;;;5.15;;
25824;SDS011;13658;44.534;18.694;2023-10-31T00:35:10;10.48;;;5.30;;
25824;SDS011;13658;44.534;18.694;2023-10-31T00:37:38;12.70;;;5.22;;
25824;SDS011;13658;44.534;18.694;2023-10-31T00:40:05;8.60;;;4.68;;
25824;SDS011;13658;44.534;18.694;2023-10-31T00:42:32;8.65;;;4.30;;
25824;SDS011;13658;44.534;18.694;2023-10-31T00:44:58;7.32;;;4.05;;
25824;SDS011;13658;44.534;18.694;2023-10-31T00:47:24;6.40;;;3.78;;
25824;SDS011;13658;44.534;18.694;2023-10-31T00:49:50;6.55;;;3.47;;
25824;SDS011;13658;44.534;18.694;2023-10-31T00:52:18;8.95;;;4.13;;
25824;SDS011;13658;44.534;18.694;2023-10-31T00:54:44;6.68;;;3.65;;
25824;SDS011;13658;44.534;18.694;2023-10-31T00:57:10;7.35;;;3.80;;
25824;SDS011;13658;44.534;18.694;2023-10-31T00:59:36;6.30;;;3.40;;
25824;SDS011;13658;44.534;18.694;2023-10-31T01:02:02;5.65;;;3.17;;
25824;SDS011;13658;44.534;18.694;2023-10-31T01:04:29;5.07;;;2.75;;
25824;SDS011;13658;44.534;18.694;2023-10-31T01:06:55;6.22;;;3.17;;
25824;SDS011;13658;44.534;18.694;2023-10-31T01:09:20;6.82;;;2.90;;
25824;SDS011;13658;44.534;18.694;2023-10-31T01:11:46;6.57;;;3.08;;
25824;SDS011;13658;44.534;18.694;2023-10-31T01:14:13;5.00;;;2.65;;
25824;SDS011;13658;44.534;18.694;2023-10-31T01:16:42;6.07;;;2.67;;
25824;SDS011;13658;44.534;18.694;2023-10-31T01:19:08;5.88;;;3.15;;
25824;SDS011;13658;44.534;18.694;2023-10-31T01:21:34;6.68;;;4.03;;
25824;SDS011;13658;44.534;18.694;2023-10-31T01:23:59;8.10;;;3.90;;
25824;SDS011;13658;44.534;18.694;2023-10-31T01:26:25;9.98;;;4.13;;
25824;SDS011;13658;44.534;18.694;2023-10-31T01:28:53;7.57;;;3.17;;
25824;SDS011;13658;44.534;18.694;2023-10-31T01:31:18;6.15;;;3.70;;
25824;SDS011;13658;44.534;18.694;2023-10-31T01:33:45;8.43;;;4.20;;
25824;SDS011;13658;44.534;18.694;2023-10-31T01:36:11;6.35;;;2.75;;
25824;SDS011;13658;44.534;18.694;2023-10-31T01:38:38;4.00;;;2.35;;
25824;SDS011;13658;44.534;18.694;2023-10-31T01:41:04;5.18;;;2.58;;
25824;SDS011;13658;44.534;18.694;2023-10-31T01:43:37;3.88;;;2.00;;
25824;SDS011;13658;44.534;18.694;2023-10-31T01:46:03;1.65;;;1.00;;
25824;SDS011;13658;44.534;18.694;2023-10-31T01:48:30;2.75;;;1.10;;
25824;SDS011;13658;44.534;18.694;2023-10-31T01:50:58;1.85;;;0.80;;
25824;SDS011;13658;44.534;18.694;2023-10-31T01:53:26;2.58;;;1.30;;
25824;SDS011;13658;44.534;18.694;2023-10-31T01:55:54;2.08;;;1.23;;
25824;SDS011;13658;44.534;18.694;2023-10-31T01:58:23;1.77;;;1.02;;
25824;SDS011;13658;44.534;18.694;2023-10-31T02:00:54;2.38;;;0.70;;
25824;SDS011;13658;44.534;18.694;2023-10-31T02:03:21;1.83;;;0.70;;
25824;SDS011;13658;44.534;18.694;2023-10-31T02:05:47;1.45;;;0.70;;
25824;SDS011;13658;44.534;18.694;2023-10-31T02:08:13;0.90;;;0.60;;
25824;SDS011;13658;44.534;18.694;2023-10-31T02:10:39;3.83;;;0.73;;
25824;SDS011;13658;44.534;18.694;2023-10-31T02:13:12;2.38;;;1.00;;
25824;SDS011;13658;44.534;18.694;2023-10-31T02:15:38;1.30;;;0.63;;
25824;SDS011;13658;44.534;18.694;2023-10-31T02:18:04;2.35;;;0.75;;
25824;SDS011;13658;44.534;18.694;2023-10-31T02:20:31;1.40;;;0.80;;
25824;SDS011;13658;44.534;18.694;2023-10-31T02:22:57;2.00;;;0.68;;
25824;SDS011;13658;44.534;18.694;2023-10-31T02:25:23;1.20;;;0.70;;
25824;SDS011;13658;44.534;18.694;2023-10-31T02:27:49;1.40;;;0.80;;
25824;SDS011;13658;44.534;18.694;2023-10-31T02:30:15;1.30;;;0.70;;
25824;SDS011;13658;44.534;18.694;2023-10-31T02:32:41;1.50;;;1.00;;
25824;SDS011;13658;44.534;18.694;2023-10-31T02:35:07;2.13;;;0.88;;
25824;SDS011;13658;44.534;18.694;2023-10-31T02:37:33;3.33;;;0.90;;
25824;SDS011;13658;44.534;18.694;2023-10-31T02:39:59;1.95;;;0.90;;
25824;SDS011;13658;44.534;18.694;2023-10-31T02:42:26;1.70;;;0.82;;
25824;SDS011;13658;44.534;18.694;2023-10-31T02:44:52;1.95;;;0.90;;
25824;SDS011;13658;44.534;18.694;2023-10-31T02:47:18;2.47;;;1.05;;
25824;SDS011;13658;44.534;18.694;2023-10-31T02:49:45;2.33;;;0.80;;
25824;SDS011;13658;44.534;18.694;2023-10-31T02:52:11;1.52;;;0.90;;
25824;SDS011;13658;44.534;18.694;2023-10-31T02:54:37;1.38;;;0.88;;
25824;SDS011;13658;44.534;18.694;2023-10-31T02:57:03;2.03;;;1.00;;
25824;SDS011;13658;44.534;18.694;2023-10-31T02:59:29;1.50;;;0.70;;
25824;SDS011;13658;44.534;18.694;2023-10-31T03:01:56;1.50;;;0.60;;
25824;SDS011;13658;44.534;18.694;2023-10-31T03:04:22;2.95;;;0.70;;
25824;SDS011;13658;44.534;18.694;2023-10-31T03:06:49;1.10;;;0.88;;
25824;SDS011;13658;44.534;18.694;2023-10-31T03:09:16;2.08;;;0.90;;
25824;SDS011;13658;44.534;18.694;2023-10-31T03:11:42;1.15;;;0.70;;
25824;SDS011;13658;44.534;18.694;2023-10-31T03:14:08;1.50;;;0.70;;
25824;SDS011;13658;44.534;18.694;2023-10-31T03:16:34;1.35;;;0.80;;
25824;SDS011;13658;44.534;18.694;2023-10-31T03:19:01;1.63;;;0.80;;
25824;SDS011;13658;44.534;18.694;2023-10-31T03:21:27;2.03;;;0.70;;
25824;SDS011;13658;44.534;18.694;2023-10-31T03:23:53;4.43;;;0.68;;
25824;SDS011;13658;44.534;18.694;2023-10-31T03:26:20;1.20;;;0.63;;
25824;SDS011;13658;44.534;18.694;2023-10-31T03:28:47;1.27;;;0.70;;
25824;SDS011;13658;44.534;18.694;2023-10-31T03:31:14;2.35;;;1.05;;
25824;SDS011;13658;44.534;18.694;2023-10-31T03:33:40;1.60;;;0.70;;
25824;SDS011;13658;44.534;18.694;2023-10-31T03:36:07;1.98;;;0.70;;
25824;SDS011;13658;44.534;18.694;2023-10-31T03:38:34;3.20;;;1.00;;
25824;SDS011;13658;44.534;18.694;2023-10-31T03:41:00;3.70;;;1.30;;
25824;SDS011;13658;44.534;18.694;2023-10-31T03:43:27;3.45;;;1.20;;
25824;SDS011;13658;44.534;18.694;2023-10-31T03:45:53;7.38;;;3.15;;
25824;SDS011;13658;44.534;18.694;2023-10-31T03:48:19;4.63;;;1.88;;
25824;SDS011;13658;44.534;18.694;2023-10-31T03:50:45;3.17;;;1.38;;
25824;SDS011;13658;44.534;18.694;2023-10-31T03:53:11;1.77;;;0.93;;
25824;SDS011;13658;44.534;18.694;2023-10-31T03:55:38;3.15;;;0.93;;
25824;SDS011;13658;44.534;18.694;2023-10-31T03:58:04;3.40;;;1.15;;
25824;SDS011;13658;44.534;18.694;2023-10-31T04:00:31;5.38;;;1.35;;
25824;SDS011;13658;44.534;18.694;2023-10-31T04:02:57;3.90;;;1.40;;
25824;SDS011;13658;44.534;18.694;2023-10-31T04:05:22;1.65;;;1.17;;
25824;SDS011;13658;44.534;18.694;2023-10-31T04:07:49;3.58;;;1.33;;
25824;SDS011;13658;44.534;18.694;2023-10-31T04:10:15;1.77;;;0.85;;
25824;SDS011;13658;44.534;18.694;2023-10-31T04:12:41;1.25;;;0.80;;
25824;SDS011;13658;44.534;18.694;2023-10-31T04:15:08;3.53;;;1.00;;
25824;SDS011;13658;44.534;18.694;2023-10-31T04:17:34;2.88;;;1.10;;
25824;SDS011;13658;44.534;18.694;2023-10-31T04:20:00;1.95;;;1.00;;
25824;SDS011;13658;44.534;18.694;2023-10-31T04:22:26;2.30;;;0.90;;
25824;SDS011;13658;44.534;18.694;2023-10-31T04:24:52;2.28;;;1.20;;
25824;SDS011;13658;44.534;18.694;2023-10-31T04:27:18;2.78;;;0.80;;
25824;SDS011;13658;44.534;18.694;2023-10-31T04:29:44;2.67;;;1.13;;
25824;SDS011;13658;44.534;18.694;2023-10-31T04:32:11;2.28;;;1.00;;
25824;SDS011;13658;44.534;18.694;2023-10-31T04:34:36;2.05;;;0.80;;
25824;SDS011;13658;44.534;18.694;2023-10-31T04:37:02;1.88;;;0.90;;
25824;SDS011;13658;44.534;18.694;2023-10-31T04:39:29;1.45;;;0.90;;
25824;SDS011;13658;44.534;18.694;2023-10-31T04:41:55;2.33;;;0.90;;
25824;SDS011;13658;44.534;18.694;2023-10-31T04:44:21;2.05;;;1.20;;
25824;SDS011;13658;44.534;18.694;2023-10-31T04:46:47;2.05;;;1.10;;
25824;SDS011;13658;44.534;18.694;2023-10-31T04:49:13;2.35;;;1.45;;
25824;SDS011;13658;44.534;18.694;2023-10-31T04:51:39;3.58;;;1.20;;
25824;SDS011;13658;44.534;18.694;2023-10-31T04:54:05;3.08;;;1.10;;
25824;SDS011;13658;44.534;18.694;2023-10-31T04:56:31;3.35;;;0.98;;
25824;SDS011;13658;44.534;18.694;2023-10-31T04:58:57;3.22;;;1.20;;
25824;SDS011;13658;44.534;18.694;2023-10-31T05:01:23;4.82;;;1.10;;
25824;SDS011;13658;44.534;18.694;2023-10-31T05:03:49;3.10;;;1.40;;
25824;SDS011;13658;44.534;18.694;2023-10-31T05:06:18;2.97;;;1.20;;
25824;SDS011;13658;44.534;18.694;2023-10-31T05:08:46;3.22;;;1.20;;
25824;SDS011;13658;44.534;18.694;2023-10-31T05:11:12;5.50;;;1.55;;
25824;SDS011;13658;44.534;18.694;2023-10-31T05:13:38;2.90;;;1.10;;
25824;SDS011;13658;44.534;18.694;2023-10-31T05:16:05;3.08;;;1.23;;
25824;SDS011;13658;44.534;18.694;2023-10-31T05:18:31;3.58;;;1.13;;
25824;SDS011;13658;44.534;18.694;2023-10-31T05:20:57;9.43;;;1.73;;
25824;SDS011;13658;44.534;18.694;2023-10-31T05:23:23;2.75;;;1.40;;
25824;SDS011;13658;44.534;18.694;2023-10-31T05:25:48;6.68;;;1.65;;
25824;SDS011;13658;44.534;18.694;2023-10-31T05:28:14;3.35;;;1.33;;
25824;SDS011;13658;44.534;18.694;2023-10-31T05:30:40;5.70;;;1.80;;
25824;SDS011;13658;44.534;18.694;2023-10-31T05:33:06;2.47;;;1.20;;
25824;SDS011;13658;44.534;18.694;2023-10-31T05:35:33;3.17;;;1.23;;
25824;SDS011;13658;44.534;18.694;2023-10-31T05:37:59;2.08;;;1.20;;
25824;SDS011;13658;44.534;18.694;2023-10-31T05:40:24;3.00;;;1.60;;
25824;SDS011;13658;44.534;18.694;2023-10-31T05:42:52;3.33;;;1.48;;
25824;SDS011;13658;44.534;18.694;2023-10-31T05:45:18;4.85;;;1.48;;
25824;SDS011;13658;44.534;18.694;2023-10-31T05:47:49;4.38;;;1.90;;
25824;SDS011;13658;44.534;18.694;2023-10-31T05:50:15;8.68;;;1.90;;
25824;SDS011;13658;44.534;18.694;2023-10-31T05:52:41;6.20;;;2.10;;
25824;SDS011;13658;44.534;18.694;2023-10-31T05:55:07;7.22;;;2.05;;
25824;SDS011;13658;44.534;18.694;2023-10-31T05:57:33;2.08;;;1.40;;
25824;SDS011;13658;44.534;18.694;2023-10-31T05:59:59;3.67;;;1.58;;
25824;SDS011;13658;44.534;18.694;2023-10-31T06:02:25;6.88;;;1.63;;
25824;SDS011;13658;44.534;18.694;2023-10-31T06:04:51;4.63;;;1.50;;
25824;SDS011;13658;44.534;18.694;2023-10-31T06:07:17;4.82;;;1.70;;
25824;SDS011;13658;44.534;18.694;2023-10-31T06:09:42;4.32;;;1.70;;
25824;SDS011;13658;44.534;18.694;2023-10-31T06:12:08;4.13;;;1.60;;
25824;SDS011;13658;44.534;18.694;2023-10-31T06:14:34;4.78;;;1.70;;
25824;SDS011;13658;44.534;18.694;2023-10-31T06:17:04;3.35;;;1.50;;
25824;SDS011;13658;44.534;18.694;2023-10-31T06:19:44;6.72;;;2.25;;
25824;SDS011;13658;44.534;18.694;2023-10-31T06:22:15;5.97;;;2.78;;
25824;SDS011;13658;44.534;18.694;2023-10-31T06:24:41;5.43;;;1.70;;
25824;SDS011;13658;44.534;18.694;2023-10-31T06:27:10;6.68;;;2.20;;
25824;SDS011;13658;44.534;18.694;2023-10-31T06:29:36;6.78;;;2.40;;
25824;SDS011;13658;44.534;18.694;2023-10-31T06:32:02;7.13;;;3.05;;
25824;SDS011;13658;44.534;18.694;2023-10-31T06:34:28;11.25;;;3.70;;
25824;SDS011;13658;44.534;18.694;2023-10-31T06:36:53;8.85;;;2.53;;
25824;SDS011;13658;44.534;18.694;2023-10-31T06:39:19;5.40;;;2.03;;
25824;SDS011;13658;44.534;18.694;2023-10-31T06:41:47;8.05;;;2.65;;
25824;SDS011;13658;44.534;18.694;2023-10-31T06:44:13;4.03;;;2.55;;
25824;SDS011;13658;44.534;18.694;2023-10-31T06:46:39;10.02;;;4.80;;
25824;SDS011;13658;44.534;18.694;2023-10-31T06:49:05;14.10;;;6.47;;
25824;SDS011;13658;44.534;18.694;2023-10-31T06:51:31;16.02;;;8.75;;
25824;SDS011;13658;44.534;18.694;2023-10-31T06:54:00;15.60;;;7.30;;
25824;SDS011;13658;44.534;18.694;2023-10-31T06:56:26;13.48;;;5.43;;
25824;SDS011;13658;44.534;18.694;2023-10-31T06:58:56;14.00;;;6.20;;
25824;SDS011;13658;44.534;18.694;2023-10-31T07:01:25;19.85;;;9.52;;
25824;SDS011;13658;44.534;18.694;2023-10-31T07:04:04;16.50;;;8.10;;
25824;SDS011;13658;44.534;18.694;2023-10-31T07:06:30;18.15;;;10.40;;
25824;SDS011;13658;44.534;18.694;2023-10-31T07:08:56;20.50;;;10.80;;
25824;SDS011;13658;44.534;18.694;2023-10-31T07:11:22;25.83;;;10.75;;
25824;SDS011;13658;44.534;18.694;2023-10-31T07:13:48;24.13;;;11.93;;
25824;SDS011;13658;44.534;18.694;2023-10-31T07:16:14;23.58;;;12.45;;
25824;SDS011;13658;44.534;18.694;2023-10-31T07:18:40;25.30;;;13.68;;
25824;SDS011;13658;44.534;18.694;2023-10-31T07:21:15;23.38;;;10.68;;
25824;SDS011;13658;44.534;18.694;2023-10-31T07:24:00;16.90;;;5.75;;
25824;SDS011;13658;44.534;18.694;2023-10-31T07:26:26;27.38;;;10.63;;
25824;SDS011;13658;44.534;18.694;2023-10-31T07:28:52;27.45;;;10.60;;
25824;SDS011;13658;44.534;18.694;2023-10-31T07:31:18;16.88;;;8.02;;
25824;SDS011;13658;44.534;18.694;2023-10-31T07:33:44;18.42;;;8.75;;
25824;SDS011;13658;44.534;18.694;2023-10-31T07:36:13;28.35;;;14.18;;
25824;SDS011;13658;44.534;18.694;2023-10-31T07:38:39;17.15;;;9.38;;
25824;SDS011;13658;44.534;18.694;2023-10-31T07:41:05;21.60;;;11.77;;
25824;SDS011;13658;44.534;18.694;2023-10-31T07:43:31;20.88;;;9.30;;
25824;SDS011;13658;44.534;18.694;2023-10-31T07:45:57;25.05;;;10.75;;
25824;SDS011;13658;44.534;18.694;2023-10-31T07:48:26;28.08;;;12.50;;
25824;SDS011;13658;44.534;18.694;2023-10-31T07:50:52;22.50;;;10.57;;
25824;SDS011;13658;44.534;18.694;2023-10-31T07:53:18;20.27;;;9.90;;
25824;SDS011;13658;44.534;18.694;2023-10-31T07:55:43;15.40;;;8.45;;
25824;SDS011;13658;44.534;18.694;2023-10-31T07:58:25;45.80;;;11.35;;
25824;SDS011;13658;44.534;18.694;2023-10-31T08:00:51;18.20;;;8.40;;
25824;SDS011;13658;44.534;18.694;2023-10-31T08:03:17;20.17;;;8.73;;
25824;SDS011;13658;44.534;18.694;2023-10-31T08:05:45;22.42;;;9.25;;
25824;SDS011;13658;44.534;18.694;2023-10-31T08:08:11;20.20;;;9.30;;
25824;SDS011;13658;44.534;18.694;2023-10-31T08:10:37;20.75;;;7.32;;
25824;SDS011;13658;44.534;18.694;2023-10-31T08:13:03;27.23;;;12.35;;
25824;SDS011;13658;44.534;18.694;2023-10-31T08:15:29;26.77;;;11.80;;
25824;SDS011;13658;44.534;18.694;2023-10-31T08:17:58;17.83;;;6.22;;
25824;SDS011;13658;44.534;18.694;2023-10-31T08:20:24;27.88;;;13.05;;
25824;SDS011;13658;44.534;18.694;2023-10-31T08:22:50;12.70;;;4.65;;
25824;SDS011;13658;44.534;18.694;2023-10-31T08:25:16;22.35;;;8.48;;
25824;SDS011;13658;44.534;18.694;2023-10-31T08:27:44;17.02;;;5.47;;
25824;SDS011;13658;44.534;18.694;2023-10-31T08:30:10;19.88;;;6.68;;
25824;SDS011;13658;44.534;18.694;2023-10-31T08:32:37;24.63;;;8.05;;
25824;SDS011;13658;44.534;18.694;2023-10-31T08:35:12;14.63;;;5.32;;
25824;SDS011;13658;44.534;18.694;2023-10-31T08:37:38;20.88;;;7.75;;
25824;SDS011;13658;44.534;18.694;2023-10-31T08:40:04;15.70;;;4.85;;
25824;SDS011;13658;44.534;18.694;2023-10-31T08:42:30;15.23;;;5.20;;
25824;SDS011;13658;44.534;18.694;2023-10-31T08:44:56;18.48;;;6.63;;
25824;SDS011;13658;44.534;18.694;2023-10-31T08:47:25;15.20;;;4.72;;
25824;SDS011;13658;44.534;18.694;2023-10-31T08:49:53;21.90;;;7.22;;
25824;SDS011;13658;44.534;18.694;2023-10-31T08:52:19;20.42;;;6.72;;
25824;SDS011;13658;44.534;18.694;2023-10-31T08:54:45;20.23;;;5.05;;
25824;SDS011;13658;44.534;18.694;2023-10-31T08:57:11;20.77;;;5.00;;
25824;SDS011;13658;44.534;18.694;2023-10-31T09:02:37;15.82;;;4.22;;
25824;SDS011;13658;44.534;18.694;2023-10-31T09:05:02;12.93;;;5.15;;
25824;SDS011;13658;44.534;18.694;2023-10-31T09:07:29;17.83;;;4.97;;
25824;SDS011;13658;44.534;18.694;2023-10-31T09:09:55;12.57;;;4.63;;
25824;SDS011;13658;44.534;18.694;2023-10-31T09:12:20;15.80;;;4.63;;
25824;SDS011;13658;44.534;18.694;2023-10-31T09:14:46;13.65;;;4.30;;
25824;SDS011;13658;44.534;18.694;2023-10-31T09:17:12;18.38;;;4.88;;
25824;SDS011;13658;44.534;18.694;2023-10-31T09:19:38;22.00;;;6.07;;
25824;SDS011;13658;44.534;18.694;2023-10-31T09:22:04;17.35;;;4.97;;
25824;SDS011;13658;44.534;18.694;2023-10-31T09:24:30;17.08;;;4.72;;
25824;SDS011;13658;44.534;18.694;2023-10-31T09:26:56;23.60;;;7.05;;
25824;SDS011;13658;44.534;18.694;2023-10-31T09:29:22;21.45;;;8.23;;
25824;SDS011;13658;44.534;18.694;2023-10-31T09:31:48;16.92;;;4.97;;
25824;SDS011;13658;44.534;18.694;2023-10-31T09:34:14;18.40;;;6.13;;
25824;SDS011;13658;44.534;18.694;2023-10-31T09:36:40;21.90;;;5.53;;
25824;SDS011;13658;44.534;18.694;2023-10-31T09:39:07;19.30;;;5.25;;
25824;SDS011;13658;44.534;18.694;2023-10-31T09:41:33;17.63;;;5.47;;
25824;SDS011;13658;44.534;18.694;2023-10-31T09:43:59;15.65;;;5.22;;
25824;SDS011;13658;44.534;18.694;2023-10-31T09:46:27;19.60;;;6.60;;
25824;SDS011;13658;44.534;18.694;2023-10-31T09:48:54;18.55;;;5.60;;
25824;SDS011;13658;44.534;18.694;2023-10-31T09:51:21;16.77;;;6.78;;
25824;SDS011;13658;44.534;18.694;2023-10-31T09:53:47;20.85;;;6.80;;
25824;SDS011;13658;44.534;18.694;2023-10-31T09:56:16;20.55;;;6.80;;
25824;SDS011;13658;44.534;18.694;2023-10-31T09:58:49;15.55;;;5.85;;
25824;SDS011;13658;44.534;18.694;2023-10-31T10:01:15;20.25;;;6.50;;
25824;SDS011;13658;44.534;18.694;2023-10-31T10:03:41;22.05;;;6.45;;
25824;SDS011;13658;44.534;18.694;2023-10-31T10:06:08;26.58;;;6.95;;
25824;SDS011;13658;44.534;18.694;2023-10-31T10:08:38;20.65;;;7.53;;
25824;SDS011;13658;44.534;18.694;2023-10-31T10:11:07;23.40;;;7.30;;
25824;SDS011;13658;44.534;18.694;2023-10-31T10:16:29;22.85;;;9.80;;
25824;SDS011;13658;44.534;18.694;2023-10-31T10:21:48;19.88;;;5.72;;
25824;SDS011;13658;44.534;18.694;2023-10-31T10:24:18;17.27;;;6.57;;
25824;SDS011;13658;44.534;18.694;2023-10-31T10:26:51;20.25;;;5.40;;
25824;SDS011;13658;44.534;18.694;2023-10-31T10:29:17;20.90;;;5.80;;
25824;SDS011;13658;44.534;18.694;2023-10-31T10:31:44;23.48;;;5.75;;
25824;SDS011;13658;44.534;18.694;2023-10-31T10:34:13;18.65;;;7.18;;
25824;SDS011;13658;44.534;18.694;2023-10-31T10:36:40;23.67;;;10.80;;
25824;SDS011;13658;44.534;18.694;2023-10-31T10:39:20;14.20;;;4.72;;
25824;SDS011;13658;44.534;18.694;2023-10-31T10:41:54;16.67;;;4.43;;
25824;SDS011;13658;44.534;18.694;2023-10-31T10:44:25;20.48;;;7.10;;
25824;SDS011;13658;44.534;18.694;2023-10-31T10:46:54;17.02;;;4.07;;
25824;SDS011;13658;44.534;18.694;2023-10-31T10:49:21;17.27;;;6.00;;
25824;SDS011;13658;44.534;18.694;2023-10-31T10:54:58;16.85;;;4.03;;
25824;SDS011;13658;44.534;18.694;2023-10-31T10:57:37;19.73;;;6.38;;
25824;SDS011;13658;44.534;18.694;2023-10-31T11:00:25;22.92;;;8.00;;
25824;SDS011;13658;44.534;18.694;2023-10-31T11:02:55;18.27;;;7.15;;
25824;SDS011;13658;44.534;18.694;2023-10-31T11:05:25;20.25;;;9.05;;
25824;SDS011;13658;44.534;18.694;2023-10-31T11:07:51;32.15;;;14.65;;
25824;SDS011;13658;44.534;18.694;2023-10-31T11:10:18;21.98;;;9.60;;
25824;SDS011;13658;44.534;18.694;2023-10-31T11:12:47;18.02;;;7.47;;
25824;SDS011;13658;44.534;18.694;2023-10-31T11:15:22;15.65;;;5.25;;
25824;SDS011;13658;44.534;18.694;2023-10-31T11:17:53;15.65;;;5.25;;
25824;SDS011;13658;44.534;18.694;2023-10-31T11:20:21;20.95;;;9.55;;
25824;SDS011;13658;44.534;18.694;2023-10-31T11:23:06;25.40;;;7.70;;
25824;SDS011;13658;44.534;18.694;2023-10-31T11:25:42;80.97;;;49.17;;
25824;SDS011;13658;44.534;18.694;2023-10-31T11:28:15;18.98;;;6.70;;
25824;SDS011;13658;44.534;18.694;2023-10-31T11:33:40;24.45;;;10.93;;
25824;SDS011;13658;44.534;18.694;2023-10-31T11:36:11;15.40;;;7.03;;
25824;SDS011;13658;44.534;18.694;2023-10-31T11:38:37;23.75;;;13.68;;
25824;SDS011;13658;44.534;18.694;2023-10-31T11:41:03;17.63;;;6.43;;
25824;SDS011;13658;44.534;18.694;2023-10-31T11:48:46;20.02;;;6.70;;
25824;SDS011;13658;44.534;18.694;2023-10-31T11:51:20;19.60;;;7.13;;
25824;SDS011;13658;44.534;18.694;2023-10-31T11:53:52;21.88;;;8.25;;
25824;SDS011;13658;44.534;18.694;2023-10-31T11:56:21;29.95;;;15.00;;
25824;SDS011;13658;44.534;18.694;2023-10-31T11:58:55;27.38;;;13.77;;
25824;SDS011;13658;44.534;18.694;2023-10-31T12:01:29;25.70;;;8.10;;
25824;SDS011;13658;44.534;18.694;2023-10-31T12:03:55;17.83;;;6.93;;
25824;SDS011;13658;44.534;18.694;2023-10-31T12:06:21;29.13;;;10.57;;
25824;SDS011;13658;44.534;18.694;2023-10-31T12:08:59;20.98;;;9.45;;
25824;SDS011;13658;44.534;18.694;2023-10-31T12:11:43;24.23;;;11.88;;
25824;SDS011;13658;44.534;18.694;2023-10-31T12:14:17;25.52;;;9.18;;
25824;SDS011;13658;44.534;18.694;2023-10-31T12:16:45;32.35;;;15.43;;
25824;SDS011;13658;44.534;18.694;2023-10-31T12:19:11;16.30;;;6.60;;
25824;SDS011;13658;44.534;18.694;2023-10-31T12:21:47;20.52;;;6.45;;
25824;SDS011;13658;44.534;18.694;2023-10-31T12:27:11;12.85;;;4.05;;
25824;SDS011;13658;44.534;18.694;2023-10-31T12:29:37;14.30;;;3.40;;
25824;SDS011;13658;44.534;18.694;2023-10-31T12:32:12;12.23;;;3.50;;
25824;SDS011;13658;44.534;18.694;2023-10-31T12:34:42;18.73;;;4.68;;
25824;SDS011;13658;44.534;18.694;2023-10-31T12:37:18;11.32;;;3.63;;
25824;SDS011;13658;44.534;18.694;2023-10-31T12:39:44;10.60;;;4.07;;
25824;SDS011;13658;44.534;18.694;2023-10-31T12:42:18;10.05;;;3.88;;
25824;SDS011;13658;44.534;18.694;2023-10-31T12:44:51;12.25;;;4.00;;
25824;SDS011;13658;44.534;18.694;2023-10-31T12:47:26;16.05;;;4.93;;
25824;SDS011;13658;44.534;18.694;2023-10-31T12:50:35;14.00;;;5.18;;
25824;SDS011;13658;44.534;18.694;2023-10-31T12:52:45;10.73;;;3.33;;
25824;SDS011;13658;44.534;18.694;2023-10-31T12:55:18;16.33;;;3.83;;
25824;SDS011;13658;44.534;18.694;2023-10-31T12:57:46;10.35;;;4.07;;
25824;SDS011;13658;44.534;18.694;2023-10-31T13:00:13;11.93;;;3.35;;
25824;SDS011;13658;44.534;18.694;2023-10-31T13:02:40;10.77;;;3.63;;
25824;SDS011;13658;44.534;18.694;2023-10-31T13:05:13;10.77;;;3.15;;
25824;SDS011;13658;44.534;18.694;2023-10-31T13:07:49;11.00;;;3.80;;
25824;SDS011;13658;44.534;18.694;2023-10-31T13:10:20;11.35;;;3.25;;
25824;SDS011;13658;44.534;18.694;2023-10-31T13:12:47;9.30;;;2.67;;
25824;SDS011;13658;44.534;18.694;2023-10-31T13:15:16;10.63;;;3.50;;
25824;SDS011;13658;44.534;18.694;2023-10-31T13:17:47;12.38;;;2.75;;
25824;SDS011;13658;44.534;18.694;2023-10-31T13:20:16;9.77;;;3.38;;
25824;SDS011;13658;44.534;18.694;2023-10-31T13:23:01;8.32;;;2.00;;
25824;SDS011;13658;44.534;18.694;2023-10-31T13:25:28;10.07;;;2.90;;
25824;SDS011;13658;44.534;18.694;2023-10-31T13:27:54;6.30;;;2.08;;
25824;SDS011;13658;44.534;18.694;2023-10-31T13:30:22;10.55;;;3.05;;
25824;SDS011;13658;44.534;18.694;2023-10-31T13:32:56;7.82;;;2.55;;
25824;SDS011;13658;44.534;18.694;2023-10-31T13:35:22;8.20;;;2.70;;
25824;SDS011;13658;44.534;18.694;2023-10-31T13:37:48;6.38;;;2.20;;
25824;SDS011;13658;44.534;18.694;2023-10-31T13:40:17;7.50;;;2.90;;
25824;SDS011;13658;44.534;18.694;2023-10-31T13:42:43;8.23;;;2.25;;
25824;SDS011;13658;44.534;18.694;2023-10-31T13:45:09;9.52;;;3.60;;
25824;SDS011;13658;44.534;18.694;2023-10-31T13:47:37;17.58;;;6.55;;
25824;SDS011;13658;44.534;18.694;2023-10-31T13:52:57;11.00;;;4.90;;
25824;SDS011;13658;44.534;18.694;2023-10-31T13:55:32;8.77;;;2.72;;
25824;SDS011;13658;44.534;18.694;2023-10-31T13:57:58;10.32;;;2.67;;
25824;SDS011;13658;44.534;18.694;2023-10-31T14:00:27;10.93;;;2.83;;
25824;SDS011;13658;44.534;18.694;2023-10-31T14:02:53;8.43;;;2.58;;
25824;SDS011;13658;44.534;18.694;2023-10-31T14:05:22;8.90;;;2.55;;
25824;SDS011;13658;44.534;18.694;2023-10-31T14:07:48;8.23;;;2.47;;
25824;SDS011;13658;44.534;18.694;2023-10-31T14:10:16;8.70;;;2.20;;
25824;SDS011;13658;44.534;18.694;2023-10-31T14:12:45;6.70;;;2.22;;
25824;SDS011;13658;44.534;18.694;2023-10-31T14:15:12;10.27;;;4.20;;
25824;SDS011;13658;44.534;18.694;2023-10-31T14:17:38;15.65;;;4.40;;
25824;SDS011;13658;44.534;18.694;2023-10-31T14:20:06;7.25;;;2.47;;
25824;SDS011;13658;44.534;18.694;2023-10-31T14:22:33;12.70;;;3.72;;
25824;SDS011;13658;44.534;18.694;2023-10-31T14:25:02;7.93;;;2.70;;
25824;SDS011;13658;44.534;18.694;2023-10-31T14:27:35;13.75;;;4.70;;
25824;SDS011;13658;44.534;18.694;2023-10-31T14:30:02;17.60;;;5.05;;
25824;SDS011;13658;44.534;18.694;2023-10-31T14:32:31;11.18;;;3.92;;
25824;SDS011;13658;44.534;18.694;2023-10-31T14:34:56;13.68;;;5.00;;
25824;SDS011;13658;44.534;18.694;2023-10-31T14:37:32;17.15;;;6.00;;
25824;SDS011;13658;44.534;18.694;2023-10-31T14:39:58;10.50;;;4.05;;
25824;SDS011;13658;44.534;18.694;2023-10-31T14:42:33;10.43;;;4.43;;
25824;SDS011;13658;44.534;18.694;2023-10-31T14:45:00;11.32;;;5.20;;
25824;SDS011;13658;44.534;18.694;2023-10-31T14:47:29;10.63;;;4.72;;
25824;SDS011;13658;44.534;18.694;2023-10-31T14:49:54;11.98;;;5.30;;
25824;SDS011;13658;44.534;18.694;2023-10-31T14:52:23;14.70;;;5.35;;
25824;SDS011;13658;44.534;18.694;2023-10-31T14:54:49;15.50;;;4.10;;